createdAt,value
2022-10-09T00:00:50.088Z,9.30
2022-10-09T00:03:18.355Z,9.30
2022-10-09T00:05:45.515Z,9.20
2022-10-09T00:08:12.788Z,9.20
2022-10-09T00:10:43.975Z,9.10
2022-10-09T00:13:13.658Z,9.10
2022-10-09T00:15:42.990Z,9.10
2022-10-09T00:18:11.654Z,9.10
2022-10-09T00:20:40.540Z,9.10
2022-10-09T00:23:07.919Z,9.10
2022-10-09T00:25:36.004Z,9.10
2022-10-09T00:28:04.681Z,9.10
2022-10-09T00:30:32.285Z,9.00
2022-10-09T00:32:59.251Z,9.10
2022-10-09T00:35:26.206Z,9.10
2022-10-09T00:37:53.102Z,9.00
2022-10-09T00:40:20.262Z,9.00
2022-10-09T00:42:49.040Z,9.10
2022-10-09T00:45:21.899Z,9.00
2022-10-09T00:47:53.240Z,9.00
2022-10-09T00:50:24.702Z,9.00
2022-10-09T00:52:55.825Z,9.00
2022-10-09T00:55:23.972Z,8.90
2022-10-09T00:57:52.604Z,8.90
2022-10-09T01:00:19.741Z,9.00
2022-10-09T01:02:47.230Z,8.90
2022-10-09T01:05:15.148Z,8.90
2022-10-09T01:07:53.834Z,8.90
2022-10-09T01:10:40.760Z,8.90
2022-10-09T01:13:25.164Z,8.90
2022-10-09T01:16:17.421Z,8.90
2022-10-09T01:18:48.769Z,8.80
2022-10-09T01:21:26.965Z,8.80
2022-10-09T01:23:59.921Z,8.80
2022-10-09T01:26:56.904Z,8.80
2022-10-09T01:29:26.815Z,8.90
2022-10-09T01:31:54.989Z,9.00
2022-10-09T01:34:23.977Z,9.10
2022-10-09T01:36:51.958Z,9.10
2022-10-09T01:39:21.500Z,9.20
2022-10-09T01:41:50.305Z,9.10
2022-10-09T01:44:29.093Z,9.20
2022-10-09T01:46:56.525Z,9.20
2022-10-09T01:49:50.553Z,9.30
2022-10-09T01:52:41.267Z,9.30
2022-10-09T01:55:08.467Z,9.30
2022-10-09T01:57:38.545Z,9.30
2022-10-09T02:00:10.344Z,9.30
2022-10-09T02:02:38.706Z,9.30
2022-10-09T02:05:07.813Z,9.30
2022-10-09T02:07:35.426Z,9.30
2022-10-09T02:10:04.935Z,9.40
2022-10-09T02:12:37.162Z,9.30
2022-10-09T02:15:04.981Z,9.20
2022-10-09T02:17:36.919Z,9.30
2022-10-09T02:20:12.831Z,9.30
2022-10-09T02:22:40.985Z,9.20
2022-10-09T02:25:08.695Z,9.20
2022-10-09T02:27:36.258Z,9.20
2022-10-09T02:30:06.024Z,9.20
2022-10-09T02:32:33.003Z,9.20
2022-10-09T02:35:00.005Z,9.10
2022-10-09T02:37:26.964Z,9.10
2022-10-09T02:39:53.860Z,9.10
2022-10-09T02:42:22.163Z,9.20
2022-10-09T02:44:49.169Z,9.20
2022-10-09T02:47:16.099Z,9.30
2022-10-09T02:49:43.141Z,9.30
2022-10-09T02:52:10.286Z,9.40
2022-10-09T02:54:37.215Z,9.40
2022-10-09T02:57:04.148Z,9.60
2022-10-09T02:59:32.203Z,9.60
2022-10-09T03:01:59.205Z,9.70
2022-10-09T03:04:26.150Z,9.70
2022-10-09T03:06:53.084Z,9.70
2022-10-09T03:09:20.040Z,9.70
2022-10-09T03:11:47.149Z,9.60
2022-10-09T03:14:14.083Z,9.60
2022-10-09T03:16:41.062Z,9.60
2022-10-09T03:19:07.984Z,9.60
2022-10-09T03:21:34.954Z,9.50
2022-10-09T03:24:01.851Z,9.60
2022-10-09T03:26:29.283Z,9.60
2022-10-09T03:28:56.658Z,9.60
2022-10-09T03:34:13.087Z,9.40
2022-10-09T03:36:40.135Z,9.40
2022-10-09T03:39:07.415Z,9.60
2022-10-09T03:41:34.382Z,9.70
2022-10-09T03:44:01.402Z,9.90
2022-10-09T03:46:28.434Z,9.90
2022-10-09T03:48:55.457Z,10.00
2022-10-09T03:51:22.352Z,10.00
2022-10-09T03:53:49.247Z,9.90
2022-10-09T03:56:16.246Z,9.90
2022-10-09T03:58:43.213Z,9.90
2022-10-09T04:01:10.250Z,9.90
2022-10-09T04:03:37.199Z,10.00
2022-10-09T04:06:04.249Z,9.90
2022-10-09T04:08:31.160Z,9.80
2022-10-09T04:10:59.745Z,9.90
2022-10-09T04:13:27.412Z,9.90
2022-10-09T04:15:55.269Z,9.90
2022-10-09T04:18:22.577Z,10.00
2022-10-09T04:20:51.913Z,10.00
2022-10-09T04:23:24.372Z,10.10
2022-10-09T04:25:56.227Z,10.20
2022-10-09T04:28:23.749Z,10.20
2022-10-09T04:30:50.945Z,10.20
2022-10-09T04:33:17.888Z,10.30
2022-10-09T04:35:46.503Z,10.30
2022-10-09T04:38:13.443Z,10.30
2022-10-09T04:40:41.068Z,10.40
2022-10-09T04:43:08.138Z,10.30
2022-10-09T04:45:40.151Z,10.30
2022-10-09T04:48:07.170Z,10.40
2022-10-09T04:50:34.096Z,10.30
2022-10-09T04:53:01.026Z,10.50
2022-10-09T04:55:27.920Z,10.60
2022-10-09T04:57:54.844Z,10.50
2022-10-09T05:00:21.853Z,10.70
2022-10-09T05:02:49.076Z,10.60
2022-10-09T05:05:16.190Z,10.50
2022-10-09T05:07:43.091Z,10.50
2022-10-09T05:10:10.144Z,10.50
2022-10-09T05:12:37.029Z,10.50
2022-10-09T05:15:04.925Z,10.50
2022-10-09T05:17:31.923Z,10.50
2022-10-09T05:19:58.935Z,10.50
2022-10-09T05:22:26.289Z,10.50
2022-10-09T05:24:53.216Z,10.40
2022-10-09T05:27:20.096Z,10.40
2022-10-09T05:29:47.045Z,10.30
2022-10-09T05:32:14.821Z,10.40
2022-10-09T05:34:41.753Z,10.40
2022-10-09T05:37:08.642Z,10.40
2022-10-09T05:39:39.504Z,10.30
2022-10-09T05:42:06.510Z,10.40
2022-10-09T05:44:33.410Z,10.50
2022-10-09T05:47:00.400Z,10.50
2022-10-09T05:49:27.318Z,10.60
2022-10-09T05:51:56.077Z,10.60
2022-10-09T05:54:23.219Z,10.60
2022-10-09T05:56:50.216Z,10.70
2022-10-09T05:59:19.933Z,10.70
2022-10-09T06:01:50.202Z,10.70
2022-10-09T06:04:23.289Z,10.70
2022-10-09T06:06:50.817Z,10.70
2022-10-09T06:09:20.098Z,10.70
2022-10-09T06:11:47.029Z,10.70
2022-10-09T06:14:14.265Z,10.80
2022-10-09T06:16:43.507Z,10.80
2022-10-09T06:19:15.760Z,10.80
2022-10-09T06:21:43.389Z,10.80
2022-10-09T06:24:39.719Z,10.80
2022-10-09T06:27:06.630Z,10.80
2022-10-09T06:29:33.682Z,10.80
2022-10-09T06:32:00.577Z,10.80
2022-10-09T06:34:27.538Z,10.80
2022-10-09T06:36:54.443Z,10.80
2022-10-09T06:39:22.598Z,10.80
2022-10-09T06:41:52.050Z,10.70
2022-10-09T06:44:18.991Z,10.70
2022-10-09T06:46:48.965Z,10.60
2022-10-09T06:49:16.023Z,10.50
2022-10-09T06:51:42.963Z,10.60
2022-10-09T06:54:16.368Z,10.60
2022-10-09T06:56:43.820Z,10.70
2022-10-09T06:59:11.145Z,10.60
2022-10-09T07:01:38.464Z,10.70
2022-10-09T07:04:11.748Z,10.70
2022-10-09T07:06:42.189Z,10.90
2022-10-09T07:09:11.214Z,10.90
2022-10-09T07:11:47.054Z,11.00
2022-10-09T07:14:16.038Z,10.90
2022-10-09T07:16:45.286Z,11.00
2022-10-09T07:19:13.520Z,11.00
2022-10-09T07:21:43.321Z,11.00
2022-10-09T07:24:11.488Z,11.00
2022-10-09T07:26:42.561Z,11.00
2022-10-09T07:29:11.718Z,11.10
2022-10-09T07:31:38.646Z,11.10
2022-10-09T07:34:06.443Z,11.20
2022-10-09T07:36:33.927Z,11.30
2022-10-09T07:39:01.383Z,11.30
2022-10-09T07:41:30.153Z,11.30
2022-10-09T07:43:58.229Z,11.30
2022-10-09T07:46:30.765Z,11.30
2022-10-09T07:49:00.127Z,11.30
2022-10-09T07:51:29.277Z,11.40
2022-10-09T07:53:57.411Z,11.40
2022-10-09T07:56:29.619Z,11.40
2022-10-09T07:58:59.106Z,11.40
2022-10-09T08:01:28.267Z,11.40
2022-10-09T08:03:55.767Z,11.30
2022-10-09T08:06:23.116Z,11.30
2022-10-09T08:08:55.920Z,11.30
2022-10-09T08:11:25.130Z,11.20
2022-10-09T08:13:52.876Z,11.20
2022-10-09T08:16:21.611Z,11.20
2022-10-09T08:18:48.610Z,11.20
2022-10-09T08:21:18.392Z,11.20
2022-10-09T08:23:45.805Z,11.30
2022-10-09T08:26:20.397Z,11.30
2022-10-09T08:29:08.531Z,11.30
2022-10-09T08:31:35.540Z,11.30
2022-10-09T08:34:03.680Z,11.20
2022-10-09T08:36:31.332Z,11.20
2022-10-09T08:38:58.787Z,11.20
2022-10-09T08:41:49.943Z,11.20
2022-10-09T08:44:24.673Z,11.20
2022-10-09T08:47:06.644Z,11.20
2022-10-09T08:49:55.919Z,11.20
2022-10-09T08:52:52.631Z,11.30
2022-10-09T08:55:40.056Z,11.30
2022-10-09T08:58:07.436Z,11.30
2022-10-09T09:00:45.736Z,11.40
2022-10-09T09:03:15.513Z,11.40
2022-10-09T09:06:00.566Z,11.40
2022-10-09T09:09:05.944Z,11.40
2022-10-09T09:11:58.322Z,11.40
2022-10-09T09:14:34.276Z,11.50
2022-10-09T09:17:01.163Z,11.60
2022-10-09T09:20:00.091Z,11.60
2022-10-09T09:22:27.783Z,11.60
2022-10-09T09:24:57.768Z,11.70
2022-10-09T09:27:34.337Z,11.80
2022-10-09T09:30:13.409Z,11.80
2022-10-09T09:33:01.001Z,11.80
2022-10-09T09:35:33.029Z,11.80
2022-10-09T09:38:00.299Z,11.90
2022-10-09T09:40:37.333Z,12.00
2022-10-09T09:43:17.930Z,12.10
2022-10-09T09:45:45.487Z,12.00
2022-10-09T09:48:22.885Z,12.10
2022-10-09T09:51:04.946Z,12.10
2022-10-09T09:53:45.797Z,12.10
2022-10-09T09:56:12.881Z,12.10
2022-10-09T09:58:48.399Z,12.10
2022-10-09T10:01:27.612Z,12.10
2022-10-09T10:04:00.964Z,12.20
2022-10-09T10:06:42.090Z,12.10
2022-10-09T10:09:17.815Z,12.10
2022-10-09T10:11:54.431Z,12.10
2022-10-09T10:14:21.679Z,12.10
2022-10-09T10:16:51.458Z,12.10
2022-10-09T10:19:27.812Z,12.20
2022-10-09T10:22:05.322Z,12.20
2022-10-09T10:24:45.785Z,12.20
2022-10-09T10:27:30.101Z,12.20
2022-10-09T10:30:02.167Z,12.10
2022-10-09T10:32:40.608Z,12.10
2022-10-09T10:35:15.180Z,12.10
2022-10-09T10:38:00.919Z,12.10
2022-10-09T10:40:32.716Z,12.10
2022-10-09T10:43:07.489Z,12.00
2022-10-09T10:45:53.105Z,12.10
2022-10-09T10:48:24.215Z,12.10
2022-10-09T10:51:15.675Z,12.00
2022-10-09T10:54:27.859Z,12.00
2022-10-09T10:57:28.644Z,12.00
2022-10-09T11:00:11.330Z,12.00
2022-10-09T11:02:47.471Z,12.00
2022-10-09T11:05:33.039Z,11.90
2022-10-09T11:08:11.336Z,11.90
2022-10-09T11:11:03.229Z,11.80
2022-10-09T11:13:41.675Z,11.80
2022-10-09T11:16:34.443Z,11.80
2022-10-09T11:19:07.257Z,11.90
2022-10-09T11:21:36.900Z,11.90
2022-10-09T11:24:12.851Z,11.90
2022-10-09T11:27:09.384Z,11.90
2022-10-09T11:29:42.938Z,11.90
2022-10-09T11:32:16.513Z,11.90
2022-10-09T11:34:51.202Z,12.00
2022-10-09T11:37:27.187Z,12.00
2022-10-09T11:39:55.764Z,12.00
2022-10-09T11:42:25.213Z,12.10
2022-10-09T11:45:14.044Z,12.10
2022-10-09T11:48:02.436Z,12.10
2022-10-09T11:50:49.685Z,12.10
2022-10-09T11:53:19.912Z,12.20
2022-10-09T11:55:48.342Z,12.20
2022-10-09T11:58:26.016Z,12.30
2022-10-09T12:00:57.513Z,12.40
2022-10-09T12:03:36.410Z,12.30
2022-10-09T12:06:13.975Z,12.40
2022-10-09T12:09:02.781Z,12.30
2022-10-09T12:11:30.949Z,12.40
2022-10-09T12:14:06.649Z,12.40
2022-10-09T12:16:46.163Z,12.40
2022-10-09T12:19:38.161Z,12.40
2022-10-09T12:22:14.101Z,12.40
2022-10-09T12:24:48.323Z,12.40
2022-10-09T12:27:21.385Z,12.50
2022-10-09T12:29:56.335Z,12.50
2022-10-09T12:32:50.811Z,12.50
2022-10-09T12:35:33.162Z,12.50
2022-10-09T12:38:00.269Z,12.50
2022-10-09T12:40:31.054Z,12.40
2022-10-09T12:43:00.678Z,12.40
2022-10-09T12:45:30.689Z,12.40
2022-10-09T12:47:59.569Z,12.40
2022-10-09T12:50:28.294Z,12.40
2022-10-09T12:52:58.836Z,12.50
2022-10-09T12:55:30.144Z,12.50
2022-10-09T12:58:04.277Z,12.50
2022-10-09T13:00:33.510Z,12.50
2022-10-09T13:03:01.482Z,12.60
2022-10-09T13:05:42.304Z,12.60
2022-10-09T13:08:32.642Z,12.70
2022-10-09T13:11:11.678Z,12.70
2022-10-09T13:13:39.395Z,12.70
2022-10-09T13:16:09.480Z,12.70
2022-10-09T13:18:39.582Z,12.80
2022-10-09T13:21:24.789Z,12.80
2022-10-09T13:23:51.776Z,12.80
2022-10-09T13:26:27.162Z,12.80
2022-10-09T13:28:55.978Z,12.80
2022-10-09T13:31:22.865Z,12.80
2022-10-09T13:33:50.644Z,12.80
2022-10-09T13:36:19.251Z,12.80
2022-10-09T13:38:47.275Z,12.80
2022-10-09T13:41:24.429Z,12.80
2022-10-09T13:43:53.200Z,12.80
2022-10-09T13:46:20.410Z,12.80
2022-10-09T13:48:47.475Z,12.80
2022-10-09T13:51:14.683Z,12.90
2022-10-09T13:53:41.647Z,12.80
2022-10-09T13:56:09.598Z,12.90
2022-10-09T13:58:37.929Z,12.90
2022-10-09T14:01:04.949Z,12.90
2022-10-09T14:03:31.904Z,12.90
2022-10-09T14:06:00.101Z,12.90
2022-10-09T14:08:27.784Z,13.00
2022-10-09T14:10:54.894Z,13.00
2022-10-09T14:13:21.921Z,13.00
2022-10-09T14:15:49.439Z,12.90
2022-10-09T14:18:16.617Z,12.90
2022-10-09T14:20:43.504Z,12.90
2022-10-09T14:23:10.617Z,12.90
2022-10-09T14:25:37.554Z,12.90
2022-10-09T14:28:04.658Z,12.90
2022-10-09T14:30:32.124Z,12.90
2022-10-09T14:32:59.470Z,13.00
2022-10-09T14:35:26.456Z,13.00
2022-10-09T14:37:53.431Z,13.00
2022-10-09T14:40:20.336Z,13.00
2022-10-09T14:42:47.563Z,13.00
2022-10-09T14:45:14.959Z,13.00
2022-10-09T14:47:41.921Z,13.00
2022-10-09T14:50:09.384Z,12.90
2022-10-09T14:52:36.414Z,12.90
2022-10-09T14:55:03.383Z,12.80
2022-10-09T14:57:35.049Z,12.70
2022-10-09T15:00:03.902Z,12.70
2022-10-09T15:02:31.044Z,12.70
2022-10-09T15:04:58.070Z,12.70
2022-10-09T15:07:28.050Z,12.70
2022-10-09T15:09:56.961Z,12.70
2022-10-09T15:12:24.037Z,12.70
2022-10-09T15:14:51.043Z,12.60
2022-10-09T15:17:17.969Z,12.70
2022-10-09T15:19:44.880Z,12.70
2022-10-09T15:22:11.893Z,12.60
2022-10-09T15:24:38.937Z,12.60
2022-10-09T15:27:06.082Z,12.60
2022-10-09T15:29:33.013Z,12.70
2022-10-09T15:32:02.268Z,12.70
2022-10-09T15:34:29.693Z,12.60
2022-10-09T15:36:56.790Z,12.60
2022-10-09T15:39:23.893Z,12.50
2022-10-09T15:41:50.829Z,12.50
2022-10-09T15:44:20.562Z,12.50
2022-10-09T15:46:48.726Z,12.60
2022-10-09T15:49:16.158Z,12.50
2022-10-09T15:51:43.105Z,12.60
2022-10-09T15:54:12.038Z,12.60
2022-10-09T15:56:40.319Z,12.50
2022-10-09T15:59:10.496Z,12.50
2022-10-09T16:01:37.482Z,12.50
2022-10-09T16:04:04.539Z,12.50
2022-10-09T16:06:31.489Z,12.60
2022-10-09T16:08:59.160Z,12.60
2022-10-09T16:11:26.971Z,12.60
2022-10-09T16:13:54.744Z,12.70
2022-10-09T16:16:24.396Z,12.70
2022-10-09T16:18:52.118Z,12.60
2022-10-09T16:21:29.107Z,12.70
2022-10-09T16:23:59.247Z,12.70
2022-10-09T16:26:28.726Z,12.60
2022-10-09T16:28:56.033Z,12.70
2022-10-09T16:31:26.210Z,12.70
2022-10-09T16:33:53.464Z,12.60
2022-10-09T16:36:20.443Z,12.70
2022-10-09T16:38:47.669Z,12.70
2022-10-09T16:41:20.690Z,12.60
2022-10-09T16:43:50.155Z,12.60
2022-10-09T16:46:29.507Z,12.50
2022-10-09T16:48:57.553Z,12.50
2022-10-09T16:51:30.570Z,12.50
2022-10-09T16:53:59.558Z,12.50
2022-10-09T16:56:30.277Z,12.50
2022-10-09T16:58:59.313Z,12.60
2022-10-09T17:01:27.100Z,12.60
2022-10-09T17:03:58.502Z,12.60
2022-10-09T17:06:27.057Z,12.60
2022-10-09T17:08:57.022Z,12.60
2022-10-09T17:11:25.758Z,12.50
2022-10-09T17:13:56.764Z,12.50
2022-10-09T17:16:26.687Z,12.60
2022-10-09T17:18:54.465Z,12.50
2022-10-09T17:21:21.535Z,12.60
2022-10-09T17:23:48.590Z,12.50
2022-10-09T17:26:19.083Z,12.50
2022-10-09T17:28:47.528Z,12.50
2022-10-09T17:31:20.856Z,12.50
2022-10-09T17:33:49.015Z,12.50
2022-10-09T17:36:18.494Z,12.50
2022-10-09T17:38:46.011Z,12.40
2022-10-09T17:41:14.938Z,12.40
2022-10-09T17:43:42.087Z,12.40
2022-10-09T17:46:09.225Z,12.40
2022-10-09T17:48:39.383Z,12.30
2022-10-09T17:51:06.313Z,12.20
2022-10-09T17:53:33.231Z,12.10
2022-10-09T17:56:04.250Z,12.10
2022-10-09T17:58:31.387Z,12.00
2022-10-09T18:00:58.402Z,12.00
2022-10-09T18:03:25.340Z,12.00
2022-10-09T18:05:53.154Z,12.00
2022-10-09T18:08:20.233Z,11.90
2022-10-09T18:10:47.142Z,12.00
2022-10-09T18:13:14.271Z,11.90
2022-10-09T18:15:44.033Z,11.90
2022-10-09T18:18:11.822Z,11.90
2022-10-09T18:20:40.405Z,11.90
2022-10-09T18:23:08.038Z,11.90
2022-10-09T18:25:40.179Z,11.90
2022-10-09T18:28:07.216Z,11.90
2022-10-09T18:30:34.577Z,11.90
2022-10-09T18:33:01.512Z,11.90
2022-10-09T18:35:30.402Z,11.90
2022-10-09T18:37:57.450Z,11.90
2022-10-09T18:40:24.429Z,12.00
2022-10-09T18:42:52.654Z,11.90
2022-10-09T18:45:20.010Z,12.00
2022-10-09T18:47:47.171Z,12.00
2022-10-09T18:50:15.047Z,12.00
2022-10-09T18:52:43.437Z,12.00
2022-10-09T18:55:15.042Z,12.00
2022-10-09T18:57:42.623Z,12.10
2022-10-09T19:00:10.216Z,12.10
2022-10-09T19:02:37.412Z,12.00
2022-10-09T19:05:04.636Z,12.10
2022-10-09T19:07:31.655Z,12.00
2022-10-09T19:09:58.702Z,12.10
2022-10-09T19:12:26.286Z,11.90
2022-10-09T19:14:53.620Z,11.60
2022-10-09T19:17:20.547Z,11.40
2022-10-09T19:19:47.509Z,11.20
2022-10-09T19:22:17.391Z,11.00
2022-10-09T19:24:46.114Z,10.90
2022-10-09T19:27:13.203Z,10.80
2022-10-09T19:29:40.166Z,10.70
2022-10-09T19:32:07.094Z,10.50
2022-10-09T19:34:34.046Z,10.40
2022-10-09T19:37:01.221Z,10.40
2022-10-09T19:39:28.198Z,10.40
2022-10-09T19:41:55.119Z,10.30
2022-10-09T19:44:22.074Z,10.30
2022-10-09T19:46:49.179Z,10.20
2022-10-09T19:49:16.625Z,10.10
2022-10-09T19:51:43.711Z,10.00
2022-10-09T19:54:10.965Z,10.00
2022-10-09T19:56:39.613Z,9.90
2022-10-09T19:59:08.407Z,9.80
2022-10-09T20:01:37.584Z,9.70
2022-10-09T20:04:08.780Z,9.70
2022-10-09T20:06:40.327Z,9.50
2022-10-09T20:09:08.095Z,9.40
2022-10-09T20:11:35.875Z,9.40
2022-10-09T20:14:03.616Z,9.30
2022-10-09T20:16:32.254Z,9.20
2022-10-09T20:19:00.254Z,9.20
2022-10-09T20:21:29.277Z,9.20
2022-10-09T20:23:57.270Z,9.10
2022-10-09T20:26:24.665Z,9.10
2022-10-09T20:28:55.294Z,9.10
2022-10-09T20:31:24.643Z,9.10
2022-10-09T20:33:52.361Z,9.10
2022-10-09T20:36:31.185Z,9.00
2022-10-09T20:39:00.262Z,9.10
2022-10-09T20:41:29.053Z,9.10
2022-10-09T20:43:57.539Z,9.00
2022-10-09T20:46:26.024Z,9.10
2022-10-09T20:48:52.999Z,9.10
2022-10-09T20:51:21.055Z,9.10
2022-10-09T20:53:52.790Z,9.10
2022-10-09T20:56:19.689Z,9.10
2022-10-09T20:58:46.610Z,9.20
2022-10-09T21:01:16.149Z,9.10
2022-10-09T21:03:43.968Z,9.20
2022-10-09T21:06:13.986Z,9.10
2022-10-09T21:08:41.126Z,9.10
2022-10-09T21:11:16.543Z,8.90
2022-10-09T21:13:44.094Z,8.80
2022-10-09T21:16:13.809Z,8.80
2022-10-09T21:18:40.942Z,8.80
2022-10-09T21:21:13.831Z,8.80
2022-10-09T21:23:41.502Z,8.80
2022-10-09T21:26:16.808Z,8.90
2022-10-09T21:28:44.780Z,8.90
2022-10-09T21:31:15.813Z,8.80
2022-10-09T21:33:43.079Z,8.80
2022-10-09T21:36:47.116Z,8.70
2022-10-09T21:39:25.673Z,8.60
2022-10-09T21:41:52.744Z,8.60
2022-10-09T21:44:19.621Z,8.60
2022-10-09T21:46:46.621Z,8.50
2022-10-09T21:49:21.196Z,8.50
2022-10-09T21:51:48.595Z,8.40
2022-10-09T21:54:15.886Z,8.30
2022-10-09T21:56:42.924Z,8.30
2022-10-09T21:59:09.792Z,8.20
2022-10-09T22:01:36.805Z,8.10
2022-10-09T22:04:03.870Z,8.00
2022-10-09T22:06:30.791Z,8.00
2022-10-09T22:08:59.427Z,7.80
2022-10-09T22:11:26.379Z,7.80
2022-10-09T22:13:55.056Z,7.80
2022-10-09T22:16:22.029Z,7.80
2022-10-09T22:18:49.093Z,7.80
2022-10-09T22:21:16.889Z,7.80
2022-10-09T22:23:43.847Z,7.80
2022-10-09T22:26:17.144Z,7.80
2022-10-09T22:28:45.456Z,7.90
2022-10-09T22:31:20.287Z,7.90
2022-10-09T22:33:52.008Z,7.90
2022-10-09T22:36:20.903Z,7.80
2022-10-09T22:38:48.377Z,7.80
2022-10-09T22:41:17.793Z,7.80
2022-10-09T22:43:47.331Z,7.90
2022-10-09T22:46:20.231Z,7.80
2022-10-09T22:48:47.679Z,7.80
2022-10-09T22:51:16.612Z,7.80
2022-10-09T22:53:44.364Z,7.70
2022-10-09T22:56:20.630Z,7.70
2022-10-09T22:58:48.327Z,7.50
2022-10-09T23:01:32.053Z,7.50
2022-10-09T23:04:03.519Z,7.40
2022-10-09T23:06:30.851Z,7.50
2022-10-09T23:08:58.241Z,7.50
2022-10-09T23:11:25.329Z,7.60
2022-10-09T23:13:57.009Z,7.70
2022-10-09T23:16:25.001Z,7.80
2022-10-09T23:18:52.258Z,7.80
2022-10-09T23:21:21.980Z,7.80
2022-10-09T23:23:50.087Z,7.80
2022-10-09T23:26:21.828Z,7.70
2022-10-09T23:28:54.499Z,7.70
2022-10-09T23:31:22.237Z,7.70
2022-10-09T23:33:49.525Z,7.70
2022-10-09T23:36:19.407Z,7.60
2022-10-09T23:38:46.564Z,7.70
2022-10-09T23:41:16.538Z,7.70
2022-10-09T23:43:44.351Z,7.70
2022-10-09T23:46:14.713Z,7.70
2022-10-09T23:48:42.640Z,7.60
2022-10-09T23:51:10.557Z,7.60
2022-10-09T23:53:37.612Z,7.60
2022-10-09T23:56:18.316Z,7.60
2022-10-09T23:58:45.874Z,7.50
